sensor_id;sensor_type;location;lat;lon;timestamp;pressure;altitude;pressure_sealevel;temperature;humidity
75745;BME280;64359;51.366;-0.222;2023-04-24T00:00:30;100243.78;;;21.67;51.19
75745;BME280;64359;51.366;-0.222;2023-04-24T00:01:34;100242.20;;;21.68;51.15
75745;BME280;64359;51.366;-0.222;2023-04-24T00:02:39;100242.37;;;21.70;51.27
75745;BME280;64359;51.366;-0.222;2023-04-24T00:03:44;100238.23;;;21.71;51.24
75745;BME280;64359;51.366;-0.222;2023-04-24T00:04:48;100242.16;;;21.72;51.21
75745;BME280;64359;51.366;-0.222;2023-04-24T00:05:53;100242.02;;;21.73;51.06
75745;BME280;64359;51.366;-0.222;2023-04-24T00:06:57;100240.03;;;21.75;51.12
75745;BME280;64359;51.366;-0.222;2023-04-24T00:08:03;100245.39;;;21.77;51.10
75745;BME280;64359;51.366;-0.222;2023-04-24T00:09:07;100243.48;;;21.78;50.96
75745;BME280;64359;51.366;-0.222;2023-04-24T00:10:13;100247.73;;;21.80;50.94
75745;BME280;64359;51.366;-0.222;2023-04-24T00:11:17;100246.69;;;21.81;50.96
75745;BME280;64359;51.366;-0.222;2023-04-24T00:12:21;100249.19;;;21.82;50.90
75745;BME280;64359;51.366;-0.222;2023-04-24T00:13:26;100251.95;;;21.83;50.89
75745;BME280;64359;51.366;-0.222;2023-04-24T00:14:31;100255.37;;;21.85;50.86
75745;BME280;64359;51.366;-0.222;2023-04-24T00:15:35;100258.33;;;21.87;50.85
75745;BME280;64359;51.366;-0.222;2023-04-24T00:16:40;100258.13;;;21.88;50.82
75745;BME280;64359;51.366;-0.222;2023-04-24T00:17:44;100257.95;;;21.89;50.81
75745;BME280;64359;51.366;-0.222;2023-04-24T00:18:49;100259.91;;;21.91;50.74
75745;BME280;64359;51.366;-0.222;2023-04-24T00:19:55;100257.66;;;21.92;50.71
75745;BME280;64359;51.366;-0.222;2023-04-24T00:21:01;100260.49;;;21.93;50.63
75745;BME280;64359;51.366;-0.222;2023-04-24T00:22:05;100262.33;;;21.94;50.67
75745;BME280;64359;51.366;-0.222;2023-04-24T00:23:10;100262.59;;;21.95;50.66
75745;BME280;64359;51.366;-0.222;2023-04-24T00:24:14;100263.26;;;21.95;50.69
75745;BME280;64359;51.366;-0.222;2023-04-24T00:25:19;100265.64;;;21.97;50.63
75745;BME280;64359;51.366;-0.222;2023-04-24T00:26:23;100264.97;;;21.98;50.59
75745;BME280;64359;51.366;-0.222;2023-04-24T00:27:27;100262.33;;;21.98;50.72
75745;BME280;64359;51.366;-0.222;2023-04-24T00:28:32;100266.80;;;21.99;50.61
75745;BME280;64359;51.366;-0.222;2023-04-24T00:29:36;100270.45;;;22.00;50.69
75745;BME280;64359;51.366;-0.222;2023-04-24T00:30:41;100264.80;;;22.00;50.70
75745;BME280;64359;51.366;-0.222;2023-04-24T00:31:45;100268.70;;;22.01;50.71
75745;BME280;64359;51.366;-0.222;2023-04-24T00:32:49;100270.50;;;22.02;50.83
75745;BME280;64359;51.366;-0.222;2023-04-24T00:33:54;100275.17;;;22.02;50.72
75745;BME280;64359;51.366;-0.222;2023-04-24T00:34:58;100271.55;;;22.02;50.87
75745;BME280;64359;51.366;-0.222;2023-04-24T00:36:03;100271.45;;;22.03;50.82
75745;BME280;64359;51.366;-0.222;2023-04-24T00:37:07;100273.55;;;22.03;50.90
75745;BME280;64359;51.366;-0.222;2023-04-24T00:38:11;100273.35;;;22.04;51.07
75745;BME280;64359;51.366;-0.222;2023-04-24T00:39:16;100272.41;;;22.04;51.15
75745;BME280;64359;51.366;-0.222;2023-04-24T00:40:20;100274.91;;;22.05;51.08
75745;BME280;64359;51.366;-0.222;2023-04-24T00:41:25;100272.48;;;22.05;51.07
75745;BME280;64359;51.366;-0.222;2023-04-24T00:42:30;100275.45;;;22.06;50.86
75745;BME280;64359;51.366;-0.222;2023-04-24T00:43:34;100274.53;;;22.06;51.04
75745;BME280;64359;51.366;-0.222;2023-04-24T00:44:39;100276.86;;;22.06;50.91
75745;BME280;64359;51.366;-0.222;2023-04-24T00:45:44;100275.58;;;22.07;50.81
75745;BME280;64359;51.366;-0.222;2023-04-24T00:46:48;100278.91;;;22.07;50.79
75745;BME280;64359;51.366;-0.222;2023-04-24T00:47:57;100280.08;;;22.07;50.84
75745;BME280;64359;51.366;-0.222;2023-04-24T00:49:01;100282.38;;;22.07;50.77
75745;BME280;64359;51.366;-0.222;2023-04-24T00:50:08;100284.84;;;22.08;50.82
75745;BME280;64359;51.366;-0.222;2023-04-24T00:51:13;100288.14;;;22.07;50.77
75745;BME280;64359;51.366;-0.222;2023-04-24T00:52:17;100289.60;;;22.07;50.79
75745;BME280;64359;51.366;-0.222;2023-04-24T00:53:22;100288.80;;;22.08;50.62
75745;BME280;64359;51.366;-0.222;2023-04-24T00:54:26;100290.77;;;22.08;50.53
75745;BME280;64359;51.366;-0.222;2023-04-24T00:55:31;100291.60;;;22.09;50.52
75745;BME280;64359;51.366;-0.222;2023-04-24T00:56:36;100291.97;;;22.08;50.70
75745;BME280;64359;51.366;-0.222;2023-04-24T00:57:40;100290.89;;;22.09;50.63
75745;BME280;64359;51.366;-0.222;2023-04-24T00:58:45;100291.30;;;22.08;50.76
75745;BME280;64359;51.366;-0.222;2023-04-24T00:59:51;100292.94;;;22.08;50.83
75745;BME280;64359;51.366;-0.222;2023-04-24T01:00:57;100295.98;;;22.08;50.95
75745;BME280;64359;51.366;-0.222;2023-04-24T01:02:03;100292.94;;;22.08;50.87
75745;BME280;64359;51.366;-0.222;2023-04-24T01:03:08;100291.64;;;22.08;50.84
75745;BME280;64359;51.366;-0.222;2023-04-24T01:04:14;100295.89;;;22.09;51.00
75745;BME280;64359;51.366;-0.222;2023-04-24T01:05:18;100298.02;;;22.09;50.99
75745;BME280;64359;51.366;-0.222;2023-04-24T01:06:23;100294.06;;;22.09;51.01
75745;BME280;64359;51.366;-0.222;2023-04-24T01:07:31;100298.91;;;22.09;50.92
75745;BME280;64359;51.366;-0.222;2023-04-24T01:08:36;100298.70;;;22.10;50.99
75745;BME280;64359;51.366;-0.222;2023-04-24T01:09:42;100300.65;;;22.10;50.78
75745;BME280;64359;51.366;-0.222;2023-04-24T01:10:51;100299.48;;;22.09;50.81
75745;BME280;64359;51.366;-0.222;2023-04-24T01:11:56;100294.73;;;22.09;50.56
75745;BME280;64359;51.366;-0.222;2023-04-24T01:13:00;100298.36;;;22.09;50.65
75745;BME280;64359;51.366;-0.222;2023-04-24T01:14:05;100296.73;;;22.09;50.57
75745;BME280;64359;51.366;-0.222;2023-04-24T01:15:11;100298.23;;;22.09;50.52
75745;BME280;64359;51.366;-0.222;2023-04-24T01:16:16;100298.77;;;22.09;50.47
75745;BME280;64359;51.366;-0.222;2023-04-24T01:17:20;100299.65;;;22.09;50.53
75745;BME280;64359;51.366;-0.222;2023-04-24T01:18:25;100302.58;;;22.09;50.50
75745;BME280;64359;51.366;-0.222;2023-04-24T01:19:29;100305.50;;;22.09;50.39
75745;BME280;64359;51.366;-0.222;2023-04-24T01:20:35;100306.50;;;22.08;50.51
75745;BME280;64359;51.366;-0.222;2023-04-24T01:21:44;100308.75;;;22.07;50.41
75745;BME280;64359;51.366;-0.222;2023-04-24T01:22:51;100310.46;;;22.07;50.54
75745;BME280;64359;51.366;-0.222;2023-04-24T01:23:56;100310.00;;;22.06;50.41
75745;BME280;64359;51.366;-0.222;2023-04-24T01:25:00;100309.30;;;22.06;50.31
75745;BME280;64359;51.366;-0.222;2023-04-24T01:26:05;100308.86;;;22.05;50.33
75745;BME280;64359;51.366;-0.222;2023-04-24T01:27:11;100305.90;;;22.04;50.34
75745;BME280;64359;51.366;-0.222;2023-04-24T01:28:15;100308.44;;;22.04;50.37
75745;BME280;64359;51.366;-0.222;2023-04-24T01:29:20;100307.27;;;22.03;50.36
75745;BME280;64359;51.366;-0.222;2023-04-24T01:30:28;100308.14;;;22.03;50.35
75745;BME280;64359;51.366;-0.222;2023-04-24T01:31:33;100305.89;;;22.03;50.37
75745;BME280;64359;51.366;-0.222;2023-04-24T01:32:38;100306.84;;;22.02;50.25
75745;BME280;64359;51.366;-0.222;2023-04-24T01:33:43;100307.60;;;22.02;50.31
75745;BME280;64359;51.366;-0.222;2023-04-24T01:34:48;100304.27;;;22.01;50.26
75745;BME280;64359;51.366;-0.222;2023-04-24T01:35:53;100303.71;;;22.01;50.31
75745;BME280;64359;51.366;-0.222;2023-04-24T01:36:58;100305.29;;;22.00;50.42
75745;BME280;64359;51.366;-0.222;2023-04-24T01:38:02;100308.41;;;22.00;50.26
75745;BME280;64359;51.366;-0.222;2023-04-24T01:39:07;100306.31;;;21.99;50.27
75745;BME280;64359;51.366;-0.222;2023-04-24T01:40:12;100306.23;;;21.98;50.35
75745;BME280;64359;51.366;-0.222;2023-04-24T01:41:16;100313.27;;;21.98;50.42
75745;BME280;64359;51.366;-0.222;2023-04-24T01:42:21;100310.45;;;21.98;50.28
75745;BME280;64359;51.366;-0.222;2023-04-24T01:43:25;100311.31;;;21.97;50.24
75745;BME280;64359;51.366;-0.222;2023-04-24T01:44:30;100313.86;;;21.97;50.26
75745;BME280;64359;51.366;-0.222;2023-04-24T01:45:35;100315.90;;;21.96;50.28
75745;BME280;64359;51.366;-0.222;2023-04-24T01:46:39;100311.65;;;21.96;50.34
75745;BME280;64359;51.366;-0.222;2023-04-24T01:47:44;100315.86;;;21.96;50.32
75745;BME280;64359;51.366;-0.222;2023-04-24T01:48:49;100317.95;;;21.95;50.31
75745;BME280;64359;51.366;-0.222;2023-04-24T01:49:55;100320.24;;;21.94;50.31
75745;BME280;64359;51.366;-0.222;2023-04-24T01:51:00;100321.38;;;21.93;50.28
75745;BME280;64359;51.366;-0.222;2023-04-24T01:52:04;100319.79;;;21.93;50.31
75745;BME280;64359;51.366;-0.222;2023-04-24T01:53:08;100318.79;;;21.93;50.35
75745;BME280;64359;51.366;-0.222;2023-04-24T01:54:13;100320.62;;;21.92;50.37
75745;BME280;64359;51.366;-0.222;2023-04-24T01:55:17;100319.54;;;21.91;50.35
75745;BME280;64359;51.366;-0.222;2023-04-24T01:56:23;100317.95;;;21.91;50.22
75745;BME280;64359;51.366;-0.222;2023-04-24T01:57:27;100317.53;;;21.90;50.28
75745;BME280;64359;51.366;-0.222;2023-04-24T01:58:33;100315.48;;;21.89;50.34
75745;BME280;64359;51.366;-0.222;2023-04-24T01:59:37;100319.78;;;21.89;50.34
75745;BME280;64359;51.366;-0.222;2023-04-24T02:00:41;100318.23;;;21.89;50.38
75745;BME280;64359;51.366;-0.222;2023-04-24T02:01:46;100319.83;;;21.88;50.31
75745;BME280;64359;51.366;-0.222;2023-04-24T02:02:50;100323.66;;;21.88;50.32
75745;BME280;64359;51.366;-0.222;2023-04-24T02:03:55;100322.33;;;21.87;50.37
75745;BME280;64359;51.366;-0.222;2023-04-24T02:04:59;100319.11;;;21.86;50.35
75745;BME280;64359;51.366;-0.222;2023-04-24T02:06:04;100321.16;;;21.85;50.31
75745;BME280;64359;51.366;-0.222;2023-04-24T02:07:08;100323.70;;;21.85;50.35
75745;BME280;64359;51.366;-0.222;2023-04-24T02:08:13;100319.73;;;21.84;50.31
75745;BME280;64359;51.366;-0.222;2023-04-24T02:09:17;100322.95;;;21.83;50.42
75745;BME280;64359;51.366;-0.222;2023-04-24T02:10:21;100328.63;;;21.83;50.39
75745;BME280;64359;51.366;-0.222;2023-04-24T02:11:26;100327.17;;;21.82;50.28
75745;BME280;64359;51.366;-0.222;2023-04-24T02:12:30;100329.66;;;21.82;50.34
75745;BME280;64359;51.366;-0.222;2023-04-24T02:13:34;100327.29;;;21.81;50.29
75745;BME280;64359;51.366;-0.222;2023-04-24T02:14:39;100330.41;;;21.80;50.37
75745;BME280;64359;51.366;-0.222;2023-04-24T02:15:43;100332.29;;;21.80;50.28
75745;BME280;64359;51.366;-0.222;2023-04-24T02:16:48;100332.00;;;21.79;50.35
75745;BME280;64359;51.366;-0.222;2023-04-24T02:17:52;100332.50;;;21.79;50.36
75745;BME280;64359;51.366;-0.222;2023-04-24T02:18:56;100332.04;;;21.78;50.39
75745;BME280;64359;51.366;-0.222;2023-04-24T02:20:01;100334.30;;;21.77;50.39
75745;BME280;64359;51.366;-0.222;2023-04-24T02:21:05;100335.06;;;21.77;50.35
75745;BME280;64359;51.366;-0.222;2023-04-24T02:22:09;100338.36;;;21.76;50.41
75745;BME280;64359;51.366;-0.222;2023-04-24T02:23:14;100339.27;;;21.75;50.41
75745;BME280;64359;51.366;-0.222;2023-04-24T02:24:18;100340.59;;;21.74;50.36
75745;BME280;64359;51.366;-0.222;2023-04-24T02:25:23;100340.52;;;21.74;50.42
75745;BME280;64359;51.366;-0.222;2023-04-24T02:26:28;100341.17;;;21.73;50.41
75745;BME280;64359;51.366;-0.222;2023-04-24T02:27:34;100345.97;;;21.72;50.35
75745;BME280;64359;51.366;-0.222;2023-04-24T02:28:38;100346.55;;;21.71;50.36
75745;BME280;64359;51.366;-0.222;2023-04-24T02:29:42;100351.23;;;21.71;50.46
75745;BME280;64359;51.366;-0.222;2023-04-24T02:30:47;100351.05;;;21.70;50.42
75745;BME280;64359;51.366;-0.222;2023-04-24T02:31:52;100355.85;;;21.70;50.41
75745;BME280;64359;51.366;-0.222;2023-04-24T02:32:56;100358.31;;;21.69;50.40
75745;BME280;64359;51.366;-0.222;2023-04-24T02:34:00;100361.90;;;21.69;50.48
75745;BME280;64359;51.366;-0.222;2023-04-24T02:35:05;100359.85;;;21.68;50.43
75745;BME280;64359;51.366;-0.222;2023-04-24T02:36:10;100364.11;;;21.68;50.49
75745;BME280;64359;51.366;-0.222;2023-04-24T02:37:15;100363.77;;;21.67;50.49
75745;BME280;64359;51.366;-0.222;2023-04-24T02:38:19;100363.14;;;21.67;50.50
75745;BME280;64359;51.366;-0.222;2023-04-24T02:39:23;100365.60;;;21.66;50.45
75745;BME280;64359;51.366;-0.222;2023-04-24T02:40:28;100363.35;;;21.65;50.57
75745;BME280;64359;51.366;-0.222;2023-04-24T02:41:32;100362.69;;;21.65;50.54
75745;BME280;64359;51.366;-0.222;2023-04-24T02:42:36;100363.67;;;21.64;50.48
75745;BME280;64359;51.366;-0.222;2023-04-24T02:43:41;100366.23;;;21.64;50.49
75745;BME280;64359;51.366;-0.222;2023-04-24T02:44:45;100366.85;;;21.63;50.51
75745;BME280;64359;51.366;-0.222;2023-04-24T02:45:49;100367.67;;;21.63;50.59
75745;BME280;64359;51.366;-0.222;2023-04-24T02:46:54;100368.27;;;21.62;50.52
75745;BME280;64359;51.366;-0.222;2023-04-24T02:47:58;100367.10;;;21.61;50.44
75745;BME280;64359;51.366;-0.222;2023-04-24T02:49:02;100370.23;;;21.61;50.53
75745;BME280;64359;51.366;-0.222;2023-04-24T02:50:08;100366.52;;;21.61;50.50
75745;BME280;64359;51.366;-0.222;2023-04-24T02:51:13;100369.09;;;21.60;50.60
75745;BME280;64359;51.366;-0.222;2023-04-24T02:52:17;100366.64;;;21.60;50.43
75745;BME280;64359;51.366;-0.222;2023-04-24T02:53:21;100373.05;;;21.59;50.56
75745;BME280;64359;51.366;-0.222;2023-04-24T02:54:26;100373.84;;;21.58;50.58
75745;BME280;64359;51.366;-0.222;2023-04-24T02:55:30;100374.84;;;21.58;50.62
75745;BME280;64359;51.366;-0.222;2023-04-24T02:56:34;100370.39;;;21.57;50.53
75745;BME280;64359;51.366;-0.222;2023-04-24T02:57:39;100373.30;;;21.57;50.56
75745;BME280;64359;51.366;-0.222;2023-04-24T02:58:43;100378.51;;;21.56;50.56
75745;BME280;64359;51.366;-0.222;2023-04-24T02:59:48;100376.21;;;21.56;50.63
75745;BME280;64359;51.366;-0.222;2023-04-24T03:00:55;100373.13;;;21.56;50.60
75745;BME280;64359;51.366;-0.222;2023-04-24T03:02:00;100375.76;;;21.55;50.62
75745;BME280;64359;51.366;-0.222;2023-04-24T03:03:04;100376.58;;;21.54;50.64
75745;BME280;64359;51.366;-0.222;2023-04-24T03:04:09;100379.38;;;21.54;50.67
75745;BME280;64359;51.366;-0.222;2023-04-24T03:05:14;100383.04;;;21.53;50.63
75745;BME280;64359;51.366;-0.222;2023-04-24T03:06:18;100386.23;;;21.52;50.71
75745;BME280;64359;51.366;-0.222;2023-04-24T03:07:24;100390.84;;;21.51;50.67
75745;BME280;64359;51.366;-0.222;2023-04-24T03:08:28;100387.46;;;21.51;50.59
75745;BME280;64359;51.366;-0.222;2023-04-24T03:09:33;100391.39;;;21.50;50.64
75745;BME280;64359;51.366;-0.222;2023-04-24T03:10:37;100394.30;;;21.50;50.60
75745;BME280;64359;51.366;-0.222;2023-04-24T03:11:41;100395.50;;;21.49;50.64
75745;BME280;64359;51.366;-0.222;2023-04-24T03:12:46;100391.50;;;21.48;50.63
75745;BME280;64359;51.366;-0.222;2023-04-24T03:13:50;100395.09;;;21.48;50.64
75745;BME280;64359;51.366;-0.222;2023-04-24T03:14:55;100391.91;;;21.48;50.70
75745;BME280;64359;51.366;-0.222;2023-04-24T03:15:59;100398.13;;;21.47;50.66
75745;BME280;64359;51.366;-0.222;2023-04-24T03:17:03;100401.01;;;21.47;50.70
75745;BME280;64359;51.366;-0.222;2023-04-24T03:18:08;100401.50;;;21.46;50.77
75745;BME280;64359;51.366;-0.222;2023-04-24T03:19:12;100402.63;;;21.45;50.72
75745;BME280;64359;51.366;-0.222;2023-04-24T03:20:16;100403.92;;;21.45;50.77
75745;BME280;64359;51.366;-0.222;2023-04-24T03:21:21;100402.50;;;21.45;50.68
75745;BME280;64359;51.366;-0.222;2023-04-24T03:22:26;100404.62;;;21.45;50.84
75745;BME280;64359;51.366;-0.222;2023-04-24T03:23:30;100401.50;;;21.46;50.78
75745;BME280;64359;51.366;-0.222;2023-04-24T03:24:34;100403.05;;;21.47;50.84
75745;BME280;64359;51.366;-0.222;2023-04-24T03:25:39;100406.85;;;21.48;50.79
75745;BME280;64359;51.366;-0.222;2023-04-24T03:26:43;100407.10;;;21.49;50.89
75745;BME280;64359;51.366;-0.222;2023-04-24T03:27:48;100408.55;;;21.50;50.85
75745;BME280;64359;51.366;-0.222;2023-04-24T03:28:52;100412.45;;;21.51;50.97
75745;BME280;64359;51.366;-0.222;2023-04-24T03:29:56;100409.32;;;21.53;50.93
75745;BME280;64359;51.366;-0.222;2023-04-24T03:31:01;100410.90;;;21.54;50.77
75745;BME280;64359;51.366;-0.222;2023-04-24T03:32:06;100410.20;;;21.55;50.85
75745;BME280;64359;51.366;-0.222;2023-04-24T03:33:10;100411.04;;;21.57;50.74
75745;BME280;64359;51.366;-0.222;2023-04-24T03:34:15;100407.33;;;21.58;50.76
75745;BME280;64359;51.366;-0.222;2023-04-24T03:35:19;100407.45;;;21.60;50.71
75745;BME280;64359;51.366;-0.222;2023-04-24T03:36:24;100409.84;;;21.61;50.67
75745;BME280;64359;51.366;-0.222;2023-04-24T03:37:29;100410.02;;;21.62;50.73
75745;BME280;64359;51.366;-0.222;2023-04-24T03:38:33;100410.55;;;21.63;50.67
75745;BME280;64359;51.366;-0.222;2023-04-24T03:39:38;100409.93;;;21.65;50.66
75745;BME280;64359;51.366;-0.222;2023-04-24T03:40:42;100415.58;;;21.67;50.60
75745;BME280;64359;51.366;-0.222;2023-04-24T03:41:46;100414.23;;;21.68;50.60
75745;BME280;64359;51.366;-0.222;2023-04-24T03:42:51;100416.46;;;21.69;50.59
75745;BME280;64359;51.366;-0.222;2023-04-24T03:43:55;100411.20;;;21.71;50.38
75745;BME280;64359;51.366;-0.222;2023-04-24T03:44:59;100417.21;;;21.72;50.48
75745;BME280;64359;51.366;-0.222;2023-04-24T03:46:04;100420.60;;;21.73;50.56
75745;BME280;64359;51.366;-0.222;2023-04-24T03:47:08;100419.89;;;21.74;50.59
75745;BME280;64359;51.366;-0.222;2023-04-24T03:48:13;100421.73;;;21.76;50.50
75745;BME280;64359;51.366;-0.222;2023-04-24T03:49:17;100422.47;;;21.77;50.43
75745;BME280;64359;51.366;-0.222;2023-04-24T03:50:22;100425.56;;;21.79;50.40
75745;BME280;64359;51.366;-0.222;2023-04-24T03:51:26;100420.56;;;21.80;50.39
75745;BME280;64359;51.366;-0.222;2023-04-24T03:52:33;100425.27;;;21.81;50.26
75745;BME280;64359;51.366;-0.222;2023-04-24T03:53:38;100421.70;;;21.82;50.29
75745;BME280;64359;51.366;-0.222;2023-04-24T03:54:42;100423.95;;;21.83;50.25
75745;BME280;64359;51.366;-0.222;2023-04-24T03:55:47;100426.74;;;21.83;50.33
75745;BME280;64359;51.366;-0.222;2023-04-24T03:56:51;100428.05;;;21.84;50.25
75745;BME280;64359;51.366;-0.222;2023-04-24T03:57:55;100428.67;;;21.85;50.18
75745;BME280;64359;51.366;-0.222;2023-04-24T03:59:00;100433.97;;;21.86;50.25
75745;BME280;64359;51.366;-0.222;2023-04-24T04:00:07;100431.48;;;21.87;50.20
75745;BME280;64359;51.366;-0.222;2023-04-24T04:01:11;100434.73;;;21.87;50.18
75745;BME280;64359;51.366;-0.222;2023-04-24T04:02:16;100436.43;;;21.88;50.21
75745;BME280;64359;51.366;-0.222;2023-04-24T04:03:20;100435.68;;;21.88;50.33
75745;BME280;64359;51.366;-0.222;2023-04-24T04:04:25;100434.48;;;21.89;50.37
75745;BME280;64359;51.366;-0.222;2023-04-24T04:05:29;100434.81;;;21.89;50.40
75745;BME280;64359;51.366;-0.222;2023-04-24T04:06:33;100434.10;;;21.89;50.66
75745;BME280;64359;51.366;-0.222;2023-04-24T04:07:39;100439.23;;;21.90;50.67
75745;BME280;64359;51.366;-0.222;2023-04-24T04:08:43;100438.57;;;21.89;50.60
75745;BME280;64359;51.366;-0.222;2023-04-24T04:09:47;100438.37;;;21.89;50.58
75745;BME280;64359;51.366;-0.222;2023-04-24T04:10:52;100438.70;;;21.90;50.56
75745;BME280;64359;51.366;-0.222;2023-04-24T04:11:56;100438.86;;;21.90;50.48
75745;BME280;64359;51.366;-0.222;2023-04-24T04:13:00;100439.40;;;21.90;50.45
75745;BME280;64359;51.366;-0.222;2023-04-24T04:14:05;100441.36;;;21.90;50.46
75745;BME280;64359;51.366;-0.222;2023-04-24T04:15:10;100443.66;;;21.90;50.32
75745;BME280;64359;51.366;-0.222;2023-04-24T04:16:14;100442.98;;;21.90;50.41
75745;BME280;64359;51.366;-0.222;2023-04-24T04:17:20;100444.95;;;21.90;50.31
75745;BME280;64359;51.366;-0.222;2023-04-24T04:18:24;100446.79;;;21.90;50.39
75745;BME280;64359;51.366;-0.222;2023-04-24T04:19:29;100453.42;;;21.90;50.29
75745;BME280;64359;51.366;-0.222;2023-04-24T04:20:33;100452.55;;;21.90;50.43
75745;BME280;64359;51.366;-0.222;2023-04-24T04:21:38;100457.38;;;21.91;50.39
75745;BME280;64359;51.366;-0.222;2023-04-24T04:22:42;100461.73;;;21.91;50.36
75745;BME280;64359;51.366;-0.222;2023-04-24T04:23:46;100462.55;;;21.90;50.36
75745;BME280;64359;51.366;-0.222;2023-04-24T04:24:51;100464.69;;;21.90;50.32
75745;BME280;64359;51.366;-0.222;2023-04-24T04:25:55;100467.95;;;21.90;50.43
75745;BME280;64359;51.366;-0.222;2023-04-24T04:26:59;100469.70;;;21.90;50.55
75745;BME280;64359;51.366;-0.222;2023-04-24T04:28:04;100467.36;;;21.90;50.56
75745;BME280;64359;51.366;-0.222;2023-04-24T04:29:09;100467.40;;;21.90;50.71
75745;BME280;64359;51.366;-0.222;2023-04-24T04:30:14;100465.94;;;21.90;50.66
75745;BME280;64359;51.366;-0.222;2023-04-24T04:31:19;100469.73;;;21.90;50.54
75745;BME280;64359;51.366;-0.222;2023-04-24T04:32:24;100470.36;;;21.91;50.33
75745;BME280;64359;51.366;-0.222;2023-04-24T04:33:29;100474.20;;;21.91;50.34
75745;BME280;64359;51.366;-0.222;2023-04-24T04:34:34;100473.99;;;21.91;50.25
75745;BME280;64359;51.366;-0.222;2023-04-24T04:35:40;100474.79;;;21.92;50.23
75745;BME280;64359;51.366;-0.222;2023-04-24T04:36:45;100472.88;;;21.92;50.17
75745;BME280;64359;51.366;-0.222;2023-04-24T04:37:50;100479.71;;;21.93;50.23
75745;BME280;64359;51.366;-0.222;2023-04-24T04:38:54;100485.40;;;21.93;50.27
75745;BME280;64359;51.366;-0.222;2023-04-24T04:39:59;100481.98;;;21.93;50.31
75745;BME280;64359;51.366;-0.222;2023-04-24T04:41:04;100486.02;;;21.94;50.39
75745;BME280;64359;51.366;-0.222;2023-04-24T04:42:08;100481.14;;;21.94;50.33
75745;BME280;64359;51.366;-0.222;2023-04-24T04:43:13;100490.27;;;21.95;50.30
75745;BME280;64359;51.366;-0.222;2023-04-24T04:44:17;100493.41;;;21.94;50.47
75745;BME280;64359;51.366;-0.222;2023-04-24T04:45:22;100491.74;;;21.95;50.46
75745;BME280;64359;51.366;-0.222;2023-04-24T04:46:27;100493.70;;;21.95;50.56
75745;BME280;64359;51.366;-0.222;2023-04-24T04:47:35;100496.08;;;21.95;50.38
75745;BME280;64359;51.366;-0.222;2023-04-24T04:48:39;100496.20;;;21.95;50.32
75745;BME280;64359;51.366;-0.222;2023-04-24T04:49:44;100495.11;;;21.95;50.39
75745;BME280;64359;51.366;-0.222;2023-04-24T04:50:48;100498.42;;;21.95;50.51
75745;BME280;64359;51.366;-0.222;2023-04-24T04:51:53;100497.75;;;21.94;50.62
75745;BME280;64359;51.366;-0.222;2023-04-24T04:52:57;100502.26;;;21.95;50.57
75745;BME280;64359;51.366;-0.222;2023-04-24T04:54:02;100504.77;;;21.95;50.66
75745;BME280;64359;51.366;-0.222;2023-04-24T04:55:07;100509.81;;;21.95;50.71
75745;BME280;64359;51.366;-0.222;2023-04-24T04:56:12;100511.30;;;21.94;50.65
75745;BME280;64359;51.366;-0.222;2023-04-24T04:57:16;100509.52;;;21.94;50.62
75745;BME280;64359;51.366;-0.222;2023-04-24T04:58:21;100513.48;;;21.94;50.55
75745;BME280;64359;51.366;-0.222;2023-04-24T04:59:25;100512.98;;;21.94;50.66
75745;BME280;64359;51.366;-0.222;2023-04-24T05:00:29;100514.15;;;21.93;50.60
75745;BME280;64359;51.366;-0.222;2023-04-24T05:01:38;100516.85;;;21.93;50.43
75745;BME280;64359;51.366;-0.222;2023-04-24T05:02:43;100513.47;;;21.93;50.40
75745;BME280;64359;51.366;-0.222;2023-04-24T05:03:47;100514.94;;;21.93;50.38
75745;BME280;64359;51.366;-0.222;2023-04-24T05:04:51;100517.23;;;21.93;50.34
75745;BME280;64359;51.366;-0.222;2023-04-24T05:05:56;100517.73;;;21.92;50.17
75745;BME280;64359;51.366;-0.222;2023-04-24T05:07:01;100516.85;;;21.92;50.23
75745;BME280;64359;51.366;-0.222;2023-04-24T05:08:05;100518.44;;;21.92;50.36
75745;BME280;64359;51.366;-0.222;2023-04-24T05:09:10;100521.06;;;21.92;50.22
75745;BME280;64359;51.366;-0.222;2023-04-24T05:10:14;100525.45;;;21.91;50.20
75745;BME280;64359;51.366;-0.222;2023-04-24T05:11:18;100521.48;;;21.91;50.24
75745;BME280;64359;51.366;-0.222;2023-04-24T05:12:23;100521.43;;;21.90;50.28
75745;BME280;64359;51.366;-0.222;2023-04-24T05:13:27;100524.86;;;21.90;50.20
75745;BME280;64359;51.366;-0.222;2023-04-24T05:14:31;100524.35;;;21.90;50.23
75745;BME280;64359;51.366;-0.222;2023-04-24T05:15:35;100530.86;;;21.90;50.16
75745;BME280;64359;51.366;-0.222;2023-04-24T05:16:40;100530.48;;;21.90;50.29
75745;BME280;64359;51.366;-0.222;2023-04-24T05:17:45;100529.78;;;21.90;50.54
75745;BME280;64359;51.366;-0.222;2023-04-24T05:18:49;100531.58;;;21.90;50.27
75745;BME280;64359;51.366;-0.222;2023-04-24T05:19:54;100524.15;;;21.90;50.19
75745;BME280;64359;51.366;-0.222;2023-04-24T05:20:58;100526.98;;;21.91;50.15
75745;BME280;64359;51.366;-0.222;2023-04-24T05:22:03;100528.82;;;21.92;50.11
75745;BME280;64359;51.366;-0.222;2023-04-24T05:23:09;100533.30;;;21.92;50.10
75745;BME280;64359;51.366;-0.222;2023-04-24T05:24:14;100537.09;;;21.93;50.11
75745;BME280;64359;51.366;-0.222;2023-04-24T05:25:19;100541.52;;;21.94;50.10
75745;BME280;64359;51.366;-0.222;2023-04-24T05:26:24;100543.07;;;21.95;50.10
75745;BME280;64359;51.366;-0.222;2023-04-24T05:27:28;100539.56;;;21.95;49.94
75745;BME280;64359;51.366;-0.222;2023-04-24T05:28:33;100536.22;;;21.96;50.04
75745;BME280;64359;51.366;-0.222;2023-04-24T05:29:39;100535.02;;;21.97;50.02
75745;BME280;64359;51.366;-0.222;2023-04-24T05:30:44;100538.36;;;21.98;49.96
75745;BME280;64359;51.366;-0.222;2023-04-24T05:31:48;100537.73;;;21.98;49.91
75745;BME280;64359;51.366;-0.222;2023-04-24T05:32:53;100539.41;;;21.99;49.98
75745;BME280;64359;51.366;-0.222;2023-04-24T05:33:57;100540.88;;;21.99;50.03